Time;durP1;ratioP1;P1;durP2;ratioP2;P2;SDS_P1;SDS_P2;PMS_P1;PMS_P2;Temp;Humidity;BMP_temperature;BMP_pressure;BME280_temperature;BME280_humidity;BME280_pressure;Samples;Min_cycle;Max_cycle;Signal;HPM_P1;HPM_P2
2023/01/08 00:01:11;;;;;;;36.80;15.13;;;;;;;-0.66;48.07;101497.27;1766010;81;21140;-65
2023/01/08 00:03:38;;;;;;;29.07;13.03;;;;;;;-0.43;48.12;101497.95;1766035;81;21014;-65
2023/01/08 00:06:09;;;;;;;33.03;14.17;;;;;;;-0.53;49.15;101495.94;1767294;81;21089;-63
2023/01/08 00:08:36;;;;;;;31.53;12.93;;;;;;;-0.35;48.11;101503.34;1767728;81;21050;-64
2023/01/08 00:11:02;;;;;;;37.90;15.57;;;;;;;-0.85;48.35;101507.89;1767695;81;21066;-65
2023/01/08 00:13:29;;;;;;;30.93;13.73;;;;;;;-0.66;48.57;101499.85;1767431;81;21132;-65
2023/01/08 00:15:56;;;;;;;28.60;13.53;;;;;;;-0.71;49.53;101507.02;1767552;81;21089;-64
2023/01/08 00:18:25;;;;;;;37.00;13.50;;;;;;;-0.66;48.76;101505.02;1767633;81;21487;-64
2023/01/08 00:20:52;;;;;;;35.77;13.73;;;;;;;-0.56;49.16;101505.31;1767808;81;21605;-65
2023/01/08 00:23:18;;;;;;;30.30;14.13;;;;;;;-0.66;49.77;101498.56;1767663;81;21077;-64
2023/01/08 00:25:45;;;;;;;29.67;12.77;;;;;;;-0.67;48.07;101505.88;1764185;81;21111;-65
2023/01/08 00:28:13;;;;;;;27.83;11.60;;;;;;;-0.82;48.22;101495.04;1756361;81;21094;-65
2023/01/08 00:30:40;;;;;;;21.73;10.67;;;;;;;-0.77;48.96;101501.23;1756575;81;21065;-64
2023/01/08 00:33:07;;;;;;;31.40;13.73;;;;;;;-1.06;48.65;101514.13;1756404;81;22180;-64
2023/01/08 00:35:33;;;;;;;34.30;12.33;;;;;;;-1.01;49.16;101503.94;1756564;81;21035;-64
2023/01/08 00:38:00;;;;;;;37.53;15.77;;;;;;;-0.92;48.84;101506.81;1756521;81;21271;-64
2023/01/08 00:40:26;;;;;;;34.77;14.20;;;;;;;-1.08;48.41;101505.86;1756559;81;21027;-65
2023/01/08 00:42:54;;;;;;;24.70;10.97;;;;;;;-1.00;48.89;101502.22;1754856;81;21042;-65
2023/01/08 00:45:22;;;;;;;29.63;12.37;;;;;;;-0.87;49.00;101501.78;1756629;81;21565;-65
2023/01/08 00:47:48;;;;;;;33.43;13.33;;;;;;;-0.75;48.09;101498.28;1756385;81;21102;-63
2023/01/08 00:50:15;;;;;;;25.43;11.10;;;;;;;-0.75;47.58;101496.98;1756557;81;21746;-65
2023/01/08 00:52:43;;;;;;;33.07;12.53;;;;;;;-0.77;47.48;101498.64;1756532;81;21081;-64
2023/01/08 00:55:10;;;;;;;35.77;14.10;;;;;;;-0.91;48.00;101506.39;1756511;81;21050;-63
2023/01/08 00:57:37;;;;;;;35.63;13.67;;;;;;;-0.62;46.96;101502.52;1756470;81;21105;-64
2023/01/08 01:00:07;;;;;;;26.27;11.20;;;;;;;-0.56;47.03;101501.42;1756434;81;21098;-64
2023/01/08 01:02:36;;;;;;;25.17;11.45;;;;;;;-0.49;47.38;101502.07;1765935;81;21125;-66
2023/01/08 01:05:04;;;;;;;32.13;12.33;;;;;;;-0.39;46.67;101498.94;1765005;81;21520;-64
2023/01/08 01:07:33;;;;;;;27.10;10.70;;;;;;;-0.43;46.53;101497.09;1764502;81;21116;-64
2023/01/08 01:09:59;;;;;;;31.50;12.70;;;;;;;-0.66;47.09;101497.27;1765112;81;21551;-64
2023/01/08 01:12:27;;;;;;;34.17;13.10;;;;;;;-0.60;46.70;101493.10;1766151;81;21115;-65
2023/01/08 01:14:53;;;;;;;31.60;12.97;;;;;;;-0.51;46.11;101497.26;1766334;81;21857;-65
2023/01/08 01:17:20;;;;;;;27.07;13.07;;;;;;;-0.75;46.68;101493.52;1766064;81;21131;-65
2023/01/08 01:19:46;;;;;;;32.60;11.90;;;;;;;-0.91;46.95;101499.92;1765927;81;21016;-64
2023/01/08 01:22:13;;;;;;;36.50;15.20;;;;;;;-1.17;47.53;101499.09;1766043;81;21106;-64
2023/01/08 01:24:39;;;;;;;32.03;13.30;;;;;;;-1.24;47.99;101500.59;1766297;81;21068;-64
2023/01/08 01:27:06;;;;;;;32.80;13.77;;;;;;;-0.89;47.85;101499.14;1763980;79;22141;-64
2023/01/08 01:29:34;;;;;;;36.93;14.30;;;;;;;-0.73;47.84;101497.91;1763716;81;21100;-63
2023/01/08 01:32:01;;;;;;;28.53;11.07;;;;;;;-0.43;47.19;101488.90;1763718;81;21095;-65
2023/01/08 01:34:27;;;;;;;31.97;13.70;;;;;;;-0.44;46.97;101481.08;1763874;81;22094;-64
2023/01/08 01:36:54;;;;;;;34.73;13.67;;;;;;;-0.83;47.87;101476.45;1763638;81;21138;-65
2023/01/08 01:39:23;;;;;;;37.83;14.70;;;;;;;-1.24;48.44;101481.60;1764031;81;21130;-65
2023/01/08 01:41:49;;;;;;;40.00;15.20;;;;;;;-1.50;48.61;101483.78;1763842;81;21012;-64
2023/01/08 01:44:44;;;;;;;35.13;13.77;;;;;;;-1.15;48.32;101475.44;1763702;81;21036;-64
2023/01/08 01:47:27;;;;;;;36.97;14.13;;;;;;;-0.69;48.00;101475.19;1762941;81;21080;-64
2023/01/08 01:50:10;;;;;;;41.97;16.00;;;;;;;-0.71;48.34;101475.55;1763530;81;21083;-65
2023/01/08 01:53:02;;;;;;;40.40;14.07;;;;;;;-0.92;48.46;101483.53;1763505;81;21983;-64
2023/01/08 01:55:29;;;;;;;39.57;15.30;;;;;;;-0.80;49.07;101476.99;1726485;83;21049;-64
2023/01/08 01:58:07;;;;;;;30.73;11.87;;;;;;;-0.44;48.08;101483.67;1726496;83;21048;-64
2023/01/08 02:00:33;;;;;;;39.23;13.10;;;;;;;-0.50;48.08;101488.68;1720229;83;21079;-64
2023/01/08 02:03:00;;;;;;;41.77;17.03;;;;;;;-1.06;48.12;101485.69;1697520;84;21111;-65
2023/01/08 02:05:32;;;;;;;36.60;12.63;;;;;;;-0.99;47.82;101493.62;1714228;83;21279;-64
2023/01/08 02:08:07;;;;;;;36.07;13.90;;;;;;;-0.84;47.99;101487.64;1726553;83;21041;-64
2023/01/08 02:10:45;;;;;;;36.50;11.37;;;;;;;-1.11;48.07;101492.39;1726552;82;21135;-63
2023/01/08 02:13:26;;;;;;;38.30;14.50;;;;;;;-1.22;47.80;101493.78;1721018;83;22071;-64
2023/01/08 02:16:21;;;;;;;35.47;12.63;;;;;;;-1.03;48.50;101499.55;1725513;81;21189;-64
2023/01/08 02:18:56;;;;;;;33.43;12.70;;;;;;;-0.20;47.34;101486.53;1703261;82;21198;-64
2023/01/08 02:21:34;;;;;;;35.77;14.17;;;;;;;-0.12;46.30;101492.78;1725573;83;21057;-64
2023/01/08 02:24:20;;;;;;;36.13;14.23;;;;;;;-0.13;46.59;101481.98;1722350;83;21060;-64
2023/01/08 02:26:46;;;;;;;35.13;13.03;;;;;;;-0.35;46.61;101483.06;1725346;83;21096;-63
2023/01/08 02:29:22;;;;;;;33.03;13.67;;;;;;;-0.30;46.32;101483.68;1725469;83;21047;-64
2023/01/08 02:31:48;;;;;;;32.20;11.90;;;;;;;-0.55;45.97;101486.34;1723029;83;21107;-64
2023/01/08 02:34:15;;;;;;;35.27;13.53;;;;;;;-0.71;46.66;101483.32;1692635;83;21115;-64
2023/01/08 02:36:55;;;;;;;32.07;12.40;;;;;;;-0.69;47.10;101484.64;1725354;83;21001;-63
2023/01/08 02:39:42;;;;;;;33.80;13.75;;;;;;;-0.91;47.15;101495.63;1725645;83;21120;-65
2023/01/08 02:42:56;;;;;;;36.10;14.20;;;;;;;-1.33;47.56;101502.88;1725544;83;21068;-64
2023/01/08 02:45:48;;;;;;;35.37;14.13;;;;;;;-1.23;47.59;101497.17;1725652;83;21182;-65
2023/01/08 02:48:22;;;;;;;41.07;12.37;;;;;;;-0.84;48.25;101485.06;1725512;83;21104;-65
2023/01/08 02:50:58;;;;;;;35.77;13.83;;;;;;;-0.98;47.13;101487.21;1725644;81;21044;-64
2023/01/08 02:53:33;;;;;;;40.40;14.67;;;;;;;-0.73;47.04;101485.40;1722703;82;21056;-64
2023/01/08 02:56:05;;;;;;;31.00;12.23;;;;;;;-0.68;46.91;101480.81;1725583;83;21536;-63
2023/01/08 02:58:33;;;;;;;32.93;11.60;;;;;;;-0.69;47.30;101488.52;1724953;82;21129;-64
2023/01/08 03:01:05;;;;;;;37.77;14.20;;;;;;;-0.94;47.81;101484.32;1710834;83;21017;-64
2023/01/08 03:03:33;;;;;;;34.80;15.13;;;;;;;-0.89;47.38;101476.28;1665110;84;21028;-65
2023/01/08 03:06:13;;;;;;;37.37;13.83;;;;;;;-0.66;49.07;101479.58;1717584;83;21084;-63
2023/01/08 03:08:43;;;;;;;31.25;12.93;;;;;;;-0.52;48.46;101487.33;1725404;83;21040;-64
2023/01/08 03:11:11;;;;;;;36.57;13.97;;;;;;;-0.48;47.74;101484.44;1725324;83;21759;-65
2023/01/08 03:13:59;;;;;;;30.20;12.60;;;;;;;-0.66;47.53;101484.33;1725293;83;21053;-64
2023/01/08 03:16:34;;;;;;;32.40;13.17;;;;;;;-0.40;46.85;101480.34;1722822;82;21025;-64
2023/01/08 03:19:18;;;;;;;34.33;13.13;;;;;;;-0.48;46.67;101470.20;1723046;83;21079;-63
2023/01/08 03:21:44;;;;;;;36.57;14.97;;;;;;;-0.59;46.69;101474.17;1720300;83;21599;-65
2023/01/08 03:24:16;;;;;;;32.97;13.53;;;;;;;-0.81;47.47;101472.63;1725372;83;21161;-66
2023/01/08 03:26:42;;;;;;;30.95;13.43;;;;;;;-0.74;47.76;101467.68;1722967;83;21057;-66
2023/01/08 03:29:12;;;;;;;32.10;14.53;;;;;;;-0.67;47.56;101470.95;1725241;83;21128;-64
2023/01/08 03:31:39;;;;;;;27.52;12.20;;;;;;;-0.88;48.12;101470.27;1725600;83;21007;-64
2023/01/08 03:34:05;;;;;;;32.23;12.03;;;;;;;-0.50;47.92;101474.02;1725216;83;21099;-65
2023/01/08 03:36:32;;;;;;;27.60;12.33;;;;;;;-0.78;47.43;101480.47;1725323;83;21136;-64
2023/01/08 03:39:01;;;;;;;28.53;12.20;;;;;;;-0.59;47.05;101478.05;1725062;83;21040;-64
2023/01/08 03:41:30;;;;;;;32.20;12.93;;;;;;;-0.51;47.03;101483.89;1725168;83;21088;-64
2023/01/08 03:43:57;;;;;;;33.90;14.10;;;;;;;-0.87;47.87;101486.27;1725291;83;21080;-65
2023/01/08 03:46:31;;;;;;;33.47;14.33;;;;;;;-0.90;47.81;101480.59;1722970;83;21508;-64
2023/01/08 03:48:57;;;;;;;33.63;13.80;;;;;;;-1.10;48.62;101479.95;1725304;83;21096;-66
2023/01/08 03:51:24;;;;;;;33.33;13.43;;;;;;;-1.06;48.63;101477.93;1725440;83;21016;-64
2023/01/08 03:53:53;;;;;;;40.10;14.20;;;;;;;-0.87;48.23;101477.21;1722696;82;21061;-64
2023/01/08 03:56:20;;;;;;;31.47;12.23;;;;;;;-0.83;48.44;101479.04;1725335;83;21036;-65
2023/01/08 03:58:47;;;;;;;34.57;14.23;;;;;;;-0.84;48.10;101473.42;1722756;83;21025;-64
2023/01/08 04:01:14;;;;;;;30.47;12.73;;;;;;;-1.22;48.59;101479.56;1725281;82;21140;-64
2023/01/08 04:03:40;;;;;;;28.77;11.23;;;;;;;-1.09;48.54;101485.56;1725309;83;21129;-64
2023/01/08 04:06:07;;;;;;;31.37;11.47;;;;;;;-0.75;48.53;101486.63;1700273;83;21025;-64
2023/01/08 04:08:33;;;;;;;33.00;12.60;;;;;;;-0.88;48.41;101487.08;1696164;84;21549;-65
2023/01/08 04:11:00;;;;;;;27.43;11.30;;;;;;;-0.38;48.25;101490.33;1696369;84;21051;-63
2023/01/08 04:13:27;;;;;;;33.07;14.00;;;;;;;-0.46;47.93;101484.03;1696067;84;21140;-64
2023/01/08 04:15:53;;;;;;;33.53;12.13;;;;;;;-0.60;48.06;101482.75;1693692;84;21055;-65
2023/01/08 04:18:20;;;;;;;36.07;13.17;;;;;;;-0.46;47.92;101484.03;1695873;84;21127;-64
2023/01/08 04:20:47;;;;;;;33.93;13.57;;;;;;;-0.71;47.52;101493.66;1695828;84;21005;-65
2023/01/08 04:23:13;;;;;;;32.53;13.70;;;;;;;-0.76;47.62;101488.77;1696126;84;21064;-63
2023/01/08 04:25:40;;;;;;;28.17;11.70;;;;;;;-0.66;48.30;101492.09;1696185;84;21247;-64
2023/01/08 04:28:07;;;;;;;32.03;12.00;;;;;;;-0.64;47.85;101485.68;1693745;84;21615;-65
2023/01/08 04:30:34;;;;;;;26.17;12.00;;;;;;;-0.95;47.99;101492.89;1696338;84;21168;-64
2023/01/08 04:33:00;;;;;;;33.20;13.23;;;;;;;-0.47;48.98;101481.87;1694116;84;21005;-63
2023/01/08 04:35:28;;;;;;;29.13;12.40;;;;;;;-0.37;47.30;101481.72;1696313;84;21055;-64
2023/01/08 04:37:55;;;;;;;33.53;13.77;;;;;;;-0.36;47.25;101482.20;1693702;84;21210;-63
2023/01/08 04:40:21;;;;;;;33.13;13.20;;;;;;;-0.57;47.45;101486.75;1693769;84;21048;-64
2023/01/08 04:42:48;;;;;;;27.70;11.37;;;;;;;-0.20;46.65;101491.71;1696098;84;21093;-65
2023/01/08 04:45:15;;;;;;;29.50;12.63;;;;;;;-0.38;46.91;101490.33;1696072;84;21122;-64
2023/01/08 04:47:42;;;;;;;34.93;13.50;;;;;;;-0.24;47.40;101491.59;1696351;84;21113;-65
2023/01/08 04:50:10;;;;;;;24.13;9.23;;;;;;;-0.13;47.44;101488.45;1696249;84;21051;-62
2023/01/08 04:52:38;;;;;;;31.43;13.43;;;;;;;-0.52;47.04;101484.74;1693785;84;21590;-65
2023/01/08 04:55:06;;;;;;;31.70;14.20;;;;;;;-0.34;47.43;101496.06;1693776;84;21052;-64
2023/01/08 04:57:32;;;;;;;35.43;12.00;;;;;;;-0.11;46.70;101489.38;1696377;84;21095;-63
2023/01/08 04:59:59;;;;;;;50.23;15.97;;;;;;;-0.32;46.42;101500.88;1696319;84;21036;-64
2023/01/08 05:02:25;;;;;;;41.37;15.70;;;;;;;-0.56;47.02;101493.66;1696317;84;21320;-64
2023/01/08 05:04:52;;;;;;;34.47;12.37;;;;;;;-0.23;46.46;101506.70;1706388;83;21017;-65
2023/01/08 05:07:18;;;;;;;60.13;19.30;;;;;;;-0.16;46.26;101497.41;1725374;83;21671;-65
2023/01/08 05:09:45;;;;;;;41.77;16.17;;;;;;;-0.19;46.26;101508.98;1725690;83;21052;-65
2023/01/08 05:12:12;;;;;;;35.20;14.67;;;;;;;-0.20;46.32;101509.83;1725313;83;21100;-65
2023/01/08 05:14:39;;;;;;;37.40;15.53;;;;;;;0.11;47.24;101506.38;1722829;82;21258;-64
2023/01/08 05:17:06;;;;;;;35.07;14.07;;;;;;;0.23;46.07;101508.42;1725515;83;21048;-65
2023/01/08 05:19:33;;;;;;;41.63;14.07;;;;;;;0.41;45.85;101511.51;1725720;83;21045;-64
2023/01/08 05:21:59;;;;;;;34.93;12.47;;;;;;;0.01;46.45;101516.91;1725668;83;21000;-64
2023/01/08 05:24:26;;;;;;;26.70;12.93;;;;;;;0.38;45.01;101506.25;1723123;83;21115;-63
2023/01/08 05:26:53;;;;;;;16.20;7.47;;;;;;;0.42;44.58;101500.33;1725624;83;21130;-64
2023/01/08 05:29:19;;;;;;;27.37;11.50;;;;;;;0.22;45.74;101498.91;1722884;83;21005;-64
2023/01/08 05:31:46;;;;;;;34.17;12.43;;;;;;;0.56;45.40;101504.14;1725493;83;21040;-64
2023/01/08 05:34:14;;;;;;;30.70;12.50;;;;;;;0.69;46.22;101500.16;1722815;83;21181;-65
2023/01/08 05:36:42;;;;;;;30.93;14.13;;;;;;;0.73;47.96;101504.56;1725524;83;21055;-65
2023/01/08 05:39:10;;;;;;;34.90;13.53;;;;;;;0.55;45.26;101515.37;1725264;83;21286;-63
2023/01/08 05:41:36;;;;;;;31.60;13.30;;;;;;;0.62;44.99;101517.28;1725536;83;21547;-64
2023/01/08 05:44:03;;;;;;;32.97;14.33;;;;;;;0.48;45.20;101499.17;1725261;83;21007;-65
2023/01/08 05:46:31;;;;;;;31.73;13.23;;;;;;;0.74;44.63;101502.88;1725631;83;21473;-64
2023/01/08 05:48:58;;;;;;;32.77;12.47;;;;;;;0.57;45.13;101513.66;1725272;83;21103;-66
2023/01/08 05:51:25;;;;;;;30.13;12.03;;;;;;;0.46;45.69;101516.42;1725474;83;21150;-65
2023/01/08 05:53:52;;;;;;;25.87;10.27;;;;;;;0.52;45.52;101507.48;1722839;83;22200;-64
2023/01/08 05:56:19;;;;;;;30.27;11.70;;;;;;;0.17;46.38;101504.84;1725431;82;21017;-65
2023/01/08 05:58:46;;;;;;;26.90;11.43;;;;;;;0.17;45.73;101511.74;1722662;83;21177;-64
2023/01/08 06:01:15;;;;;;;27.07;12.23;;;;;;;0.05;46.05;101520.05;1725094;83;21052;-65
2023/01/08 06:03:42;;;;;;;29.13;11.80;;;;;;;0.30;47.04;101522.91;1722441;83;21147;-64
2023/01/08 06:06:11;;;;;;;33.87;13.17;;;;;;;0.12;46.08;101518.09;1699436;83;21560;-65
2023/01/08 06:08:37;;;;;;;29.83;12.03;;;;;;;-0.20;46.78;101526.23;1696011;84;21050;-64
2023/01/08 06:11:07;;;;;;;31.63;12.67;;;;;;;-0.18;47.25;101523.67;1696268;84;21127;-65
2023/01/08 06:13:34;;;;;;;28.63;11.50;;;;;;;-0.37;47.20;101521.84;1693717;84;21061;-65
2023/01/08 06:16:01;;;;;;;25.93;10.83;;;;;;;0.00;46.71;101528.12;1696115;84;21806;-64
2023/01/08 06:18:28;;;;;;;23.13;10.47;;;;;;;0.03;46.66;101529.48;1696196;84;21112;-64
2023/01/08 06:20:55;;;;;;;30.47;12.23;;;;;;;0.06;46.37;101537.33;1696276;84;21131;-64
2023/01/08 06:23:21;;;;;;;32.17;11.47;;;;;;;0.13;46.71;101541.84;1693537;84;21651;-65
2023/01/08 06:25:55;;;;;;;27.47;12.67;;;;;;;0.13;46.83;101530.20;1696735;84;21064;-65
2023/01/08 06:28:22;;;;;;;26.43;12.00;;;;;;;0.21;46.48;101534.31;1693961;83;21264;-65
2023/01/08 06:30:48;;;;;;;28.57;12.53;;;;;;;0.26;46.91;101522.78;1693920;84;21089;-65
2023/01/08 06:33:15;;;;;;;34.53;11.77;;;;;;;0.62;45.97;101525.05;1696235;84;21027;-65
2023/01/08 06:35:43;;;;;;;31.27;11.70;;;;;;;0.91;45.62;101519.71;1696414;83;21112;-65
2023/01/08 06:38:09;;;;;;;31.07;11.87;;;;;;;1.11;46.14;101521.50;1693929;84;21489;-65
2023/01/08 06:40:36;;;;;;;26.90;11.73;;;;;;;1.47;44.51;101523.17;1693707;84;21889;-64
2023/01/08 06:43:04;;;;;;;29.60;12.03;;;;;;;1.71;44.01;101529.34;1693621;84;21065;-65
2023/01/08 06:45:31;;;;;;;29.50;12.33;;;;;;;1.50;43.75;101528.89;1696269;84;21079;-67
2023/01/08 06:48:05;;;;;;;29.03;11.93;;;;;;;1.07;44.46;101536.95;1693982;84;21080;-66
2023/01/08 06:50:32;;;;;;;29.53;12.30;;;;;;;1.45;43.80;101527.06;1694059;84;21056;-65
2023/01/08 06:52:59;;;;;;;34.97;14.37;;;;;;;1.11;45.00;101525.39;1696675;84;21569;-65
2023/01/08 06:55:26;;;;;;;27.47;9.90;;;;;;;1.17;44.82;101525.95;1696188;84;21140;-65
2023/01/08 06:57:56;;;;;;;28.00;13.03;;;;;;;0.74;45.51;101538.75;1696457;84;21115;-65
2023/01/08 07:00:24;;;;;;;26.85;12.03;;;;;;;0.86;45.57;101534.29;1696800;84;21064;-66
2023/01/08 07:02:53;;;;;;;33.77;11.93;;;;;;;0.73;45.03;101542.59;1696555;84;21004;-65
2023/01/08 07:05:20;;;;;;;27.43;12.60;;;;;;;0.57;44.91;101534.83;1694160;84;21116;-65
2023/01/08 07:07:48;;;;;;;28.73;11.90;;;;;;;0.46;45.02;101537.16;1696257;84;21083;-66
2023/01/08 07:10:15;;;;;;;28.73;12.07;;;;;;;0.17;46.06;101533.34;1696260;84;21100;-65
2023/01/08 07:12:42;;;;;;;27.83;11.90;;;;;;;0.06;46.64;101534.75;1696466;84;21548;-66
2023/01/08 07:15:10;;;;;;;34.07;11.33;;;;;;;0.00;46.67;101534.59;1696209;84;21061;-66
2023/01/08 07:17:37;;;;;;;24.47;9.83;;;;;;;0.52;46.36;101529.52;1696370;84;21195;-66
2023/01/08 07:20:05;;;;;;;37.13;13.80;;;;;;;0.63;47.08;101528.09;1696238;83;21084;-64
2023/01/08 07:22:32;;;;;;;30.43;11.53;;;;;;;0.49;46.10;101528.16;1696637;84;21567;-65
2023/01/08 07:24:59;;;;;;;31.23;13.57;;;;;;;0.63;46.96;101534.57;1696187;84;21085;-64
2023/01/08 07:27:25;;;;;;;32.70;13.17;;;;;;;0.54;46.27;101531.73;1696222;84;21056;-64
2023/01/08 07:29:54;;;;;;;27.63;10.90;;;;;;;0.77;45.21;101539.25;1696427;84;21287;-66
2023/01/08 07:32:21;;;;;;;27.53;11.20;;;;;;;0.87;45.11;101537.33;1696307;83;21044;-65
2023/01/08 07:34:47;;;;;;;32.90;12.33;;;;;;;0.61;45.12;101533.66;1693724;84;21100;-66
2023/01/08 07:37:14;;;;;;;26.03;11.17;;;;;;;0.42;45.76;101531.42;1696453;84;21024;-66
2023/01/08 07:39:41;;;;;;;23.13;10.20;;;;;;;0.20;46.75;101524.34;1693793;84;21611;-65
2023/01/08 07:42:07;;;;;;;28.17;10.10;;;;;;;0.72;45.91;101537.83;1693876;84;22030;-65
2023/01/08 07:44:34;;;;;;;32.47;12.33;;;;;;;1.14;45.08;101524.16;1696428;84;21001;-65
2023/01/08 07:47:00;;;;;;;34.60;12.47;;;;;;;1.05;44.66;101515.73;1696395;84;21092;-65
2023/01/08 07:49:27;;;;;;;26.40;11.43;;;;;;;1.45;44.17;101519.27;1696069;84;21103;-65
2023/01/08 07:51:54;;;;;;;30.70;13.07;;;;;;;1.60;43.94;101525.64;1696466;84;21052;-66
2023/01/08 07:54:21;;;;;;;27.07;10.90;;;;;;;1.69;43.50;101524.54;1693774;84;21799;-64
2023/01/08 07:56:47;;;;;;;27.87;12.90;;;;;;;1.37;44.51;101523.40;1699660;82;21580;-65
2023/01/08 07:59:14;;;;;;;32.13;11.37;;;;;;;1.13;44.92;101533.20;1691036;84;21111;-65
2023/01/08 08:01:41;;;;;;;38.97;13.03;;;;;;;1.45;44.27;101519.27;1691183;84;21025;-65
2023/01/08 08:04:07;;;;;;;24.63;11.37;;;;;;;1.62;44.03;101522.66;1691967;83;21563;-65
2023/01/08 08:06:34;;;;;;;37.33;12.70;;;;;;;1.83;43.34;101539.13;1720214;83;21493;-66
2023/01/08 08:24:01;;;;;;;28.40;11.93;;;;;;;2.08;43.06;101536.61;1681562;83;21545;-66
2023/01/08 08:26:27;;;;;;;27.70;11.77;;;;;;;1.83;43.25;101545.19;1707218;83;21088;-65
2023/01/08 08:28:54;;;;;;;33.00;13.50;;;;;;;2.15;42.98;101534.59;1705633;83;21592;-66
2023/01/08 08:34:39;;;;;;;32.90;12.60;;;;;;;1.49;44.52;101542.36;105516;1282;600849;-65
2023/01/08 08:37:11;;;;;;;32.40;14.10;;;;;;;1.79;43.90;101542.48;107205;1266;61884;-65
2023/01/08 08:39:38;;;;;;;25.70;10.20;;;;;;;1.78;43.82;101535.38;107210;1266;61342;-65
2023/01/08 08:42:05;;;;;;;28.50;14.40;;;;;;;1.74;44.49;101529.91;107176;1267;71268;-65
2023/01/08 08:44:40;;;;;;;38.60;14.90;;;;;;;1.67;44.14;101529.61;107773;1260;70705;-65
2023/01/08 08:47:08;;;;;;;33.40;16.30;;;;;;;2.49;43.74;101516.31;107715;1253;144524;-65
2023/01/08 08:49:37;;;;;;;43.80;14.90;;;;;;;3.21;43.08;101514.77;108033;1254;59122;-65
2023/01/08 08:52:04;;;;;;;37.80;14.10;;;;;;;3.65;40.97;101512.27;108053;1253;62382;-65
2023/01/08 08:54:31;;;;;;;31.80;14.70;;;;;;;3.82;40.58;101508.68;108087;1253;74045;-65
2023/01/08 08:56:57;;;;;;;37.30;15.10;;;;;;;4.07;40.48;101507.23;108056;1253;71261;-65
2023/01/08 08:59:24;;;;;;;32.10;14.60;;;;;;;4.28;39.94;101505.21;108030;1254;75047;-65
2023/01/08 09:01:51;;;;;;;54.80;19.60;;;;;;;4.36;39.57;101504.08;108056;1253;63039;-65
2023/01/08 09:04:18;;;;;;;39.30;16.90;;;;;;;4.32;39.61;101501.25;108045;1253;62351;-65
2023/01/08 09:06:45;;;;;;;39.50;15.60;;;;;;;3.80;39.45;101502.56;108082;1253;75476;-65
2023/01/08 09:09:13;;;;;;;47.00;17.80;;;;;;;3.63;39.69;101498.52;108126;1253;71149;-65
2023/01/08 09:11:40;;;;;;;31.00;14.10;;;;;;;3.43;40.01;101500.16;108078;1253;74161;-65
2023/01/08 09:14:08;;;;;;;45.90;19.60;;;;;;;3.45;40.49;101502.77;107987;1254;61373;-65
2023/01/08 09:16:35;;;;;;;37.80;15.80;;;;;;;3.38;40.50;101498.86;107815;1254;61718;-65
2023/01/08 09:19:03;;;;;;;42.90;16.70;;;;;;;3.51;41.83;101493.50;107975;1254;75399;-65
2023/01/08 09:21:29;;;;;;;31.90;13.60;;;;;;;3.61;41.20;101493.80;107982;1254;72439;-64
2023/01/08 09:23:56;;;;;;;36.40;14.90;;;;;;;3.62;40.11;101489.83;107992;1254;72071;-65
2023/01/08 09:26:23;;;;;;;44.10;18.70;;;;;;;3.46;40.34;101488.91;107999;1254;62049;-65
2023/01/08 09:28:50;;;;;;;36.80;15.40;;;;;;;3.17;41.03;101490.93;107944;1253;62334;-65
2023/01/08 09:31:17;;;;;;;44.10;15.00;;;;;;;2.89;41.68;101496.73;107974;1254;73859;-65
2023/01/08 09:33:46;;;;;;;37.70;15.90;;;;;;;3.17;41.50;101491.45;107893;1254;72685;-65
2023/01/08 09:36:13;;;;;;;40.50;15.30;;;;;;;3.61;40.78;101487.37;107842;1254;74749;-65
2023/01/08 09:38:40;;;;;;;41.50;17.50;;;;;;;3.53;41.51;101483.63;107885;1254;62999;-65
2023/01/08 09:41:09;;;;;;;42.90;17.70;;;;;;;3.70;40.65;101480.19;107943;1254;59423;-65
2023/01/08 09:43:37;;;;;;;49.60;16.80;;;;;;;4.01;40.34;101481.45;107853;1254;73846;-65
2023/01/08 09:46:05;;;;;;;34.40;15.20;;;;;;;4.10;40.56;101480.86;107869;1256;70449;-65
2023/01/08 09:48:34;;;;;;;34.50;15.10;;;;;;;3.96;39.68;101482.95;107733;1257;72737;-65
2023/01/08 09:51:01;;;;;;;49.80;17.70;;;;;;;3.82;40.14;101480.71;107778;1256;61006;-65
2023/01/08 09:53:28;;;;;;;42.50;17.30;;;;;;;3.57;40.59;101482.11;107921;1256;60655;-65
2023/01/08 09:55:58;;;;;;;32.30;14.10;;;;;;;3.68;40.53;101477.40;107753;1255;72965;-65
2023/01/08 09:58:50;;;;;;;42.40;16.40;;;;;;;3.33;42.55;101479.55;107953;1256;72393;-65
2023/01/08 10:01:20;;;;;;;36.70;16.90;;;;;;;3.60;43.24;101483.89;107782;1256;70687;-65
2023/01/08 10:03:54;;;;;;;34.20;15.60;;;;;;;3.91;40.40;101480.98;107990;1255;61617;-65
2023/01/08 10:06:22;;;;;;;38.80;15.50;;;;;;;3.82;40.36;101474.09;107922;1256;62262;-65
2023/01/08 10:08:49;;;;;;;52.20;17.30;;;;;;;4.13;40.31;101463.84;107762;1256;75036;-65
2023/01/08 10:11:16;;;;;;;33.10;14.20;;;;;;;4.68;39.14;101459.33;107980;1256;72198;-65
2023/01/08 10:13:52;;;;;;;34.70;15.30;;;;;;;4.78;38.80;101455.08;107753;1261;74693;-65
2023/01/08 12:08:07;;;;;;;42.90;17.10;;;;;;;-3.82;69.25;101423.34;105701;1295;611661;-95
2023/01/08 12:15:04;;;;;;;30.00;13.80;;;;;;;-0.40;53.50;101410.52;107353;1263;60515;-65
2023/01/08 12:17:40;;;;;;;26.10;12.40;;;;;;;0.10;51.28;101404.13;107303;1265;72245;-65
2023/01/08 12:20:24;;;;;;;31.00;14.20;;;;;;;0.47;50.23;101409.91;107216;1263;198672;-65
2023/01/08 12:23:12;;;;;;;36.30;13.30;;;;;;;0.54;47.63;101404.71;107437;1262;72328;-63
2023/01/08 12:26:05;;;;;;;27.50;12.60;;;;;;;0.68;48.37;101402.80;107470;1262;60439;-64
2023/01/08 12:28:51;;;;;;;26.40;12.50;;;;;;;0.89;47.77;101400.02;107376;1262;61404;-64
2023/01/08 12:31:43;;;;;;;28.50;12.30;;;;;;;0.75;47.65;101400.38;107472;1263;71640;-65
2023/01/08 12:34:18;;;;;;;20.60;8.80;;;;;;;0.66;47.98;101399.64;107382;1266;71696;-65
2023/01/08 12:36:46;;;;;;;32.00;14.50;;;;;;;0.90;47.19;101400.73;107434;1267;72818;-66
2023/01/08 12:39:26;;;;;;;29.50;12.70;;;;;;;1.11;47.09;101395.98;107408;1266;61444;-65
2023/01/08 12:41:54;;;;;;;28.60;12.00;;;;;;;1.23;46.98;101390.89;107365;1264;61602;-64
2023/01/08 12:44:23;;;;;;;26.70;11.60;;;;;;;1.59;47.19;101388.01;107390;1266;72054;-65
2023/01/08 12:46:49;;;;;;;34.40;12.30;;;;;;;2.03;46.15;101378.77;107426;1266;71476;-65
2023/01/08 12:49:23;;;;;;;35.00;14.70;;;;;;;2.86;45.69;101374.73;107384;1262;73816;-65
2023/01/08 12:51:53;;;;;;;41.60;16.40;;;;;;;3.52;43.46;101370.23;107383;1263;59690;-65
2023/01/08 12:54:56;;;;;;;29.00;12.20;;;;;;;4.06;42.99;101366.98;107361;1262;61571;-65
2023/01/08 12:57:33;;;;;;;30.00;13.30;;;;;;;4.41;42.33;101356.31;107338;1262;72653;-62
2023/01/08 13:00:25;;;;;;;46.30;18.00;;;;;;;5.03;40.92;101351.84;107399;1264;71270;-64
2023/01/08 13:03:00;;;;;;;41.20;17.80;;;;;;;5.52;37.91;101353.29;107350;1264;73276;-62
2023/01/08 13:05:29;;;;;;;30.90;11.90;;;;;;;5.33;36.92;101347.48;107415;1261;60342;-63
2023/01/08 13:08:03;;;;;;;44.10;17.90;;;;;;;4.82;36.32;101350.35;107490;1262;61744;-63
2023/01/08 13:10:30;;;;;;;29.20;13.30;;;;;;;4.79;36.64;101348.95;107463;1264;72512;-66
2023/01/08 13:12:57;;;;;;;43.10;14.80;;;;;;;4.77;36.13;101346.31;107490;1265;69970;-65
2023/01/08 13:15:25;;;;;;;39.10;16.80;;;;;;;4.88;36.34;101348.30;107487;1264;70644;-65
2023/01/08 13:17:57;;;;;;;30.30;15.00;;;;;;;4.79;36.46;101343.71;107464;1261;60519;-65
2023/01/08 13:20:27;;;;;;;50.60;17.70;;;;;;;4.58;36.92;101350.71;107516;1266;59363;-66
2023/01/08 13:22:55;;;;;;;35.50;15.80;;;;;;;3.93;37.54;101356.25;107366;1262;72257;-65
2023/01/08 13:25:32;;;;;;;37.50;12.70;;;;;;;3.68;38.93;101360.49;107448;1267;69546;-66
2023/01/08 13:28:19;;;;;;;33.70;12.80;;;;;;;3.16;39.90;101361.09;107544;1263;71894;-67
2023/01/08 13:30:47;;;;;;;31.60;14.50;;;;;;;3.14;40.29;101363.33;107456;1261;60448;-66
2023/01/08 13:33:38;;;;;;;32.20;15.90;;;;;;;3.20;40.58;101366.88;107453;1260;60277;-65
2023/01/08 13:36:29;;;;;;;28.90;13.00;;;;;;;2.87;40.69;101369.55;107560;1260;74085;-67
2023/01/08 13:39:11;;;;;;;34.50;14.40;;;;;;;2.50;41.24;101366.58;107502;1259;70418;-65